createdAt,value
2023-04-05T00:00:32.134Z,98168.27
2023-04-05T00:03:12.282Z,98159.34
2023-04-05T00:05:40.669Z,98148.50
2023-04-05T00:08:18.053Z,98139.71
2023-04-05T00:10:45.609Z,98125.29
2023-04-05T00:13:13.169Z,98117.86
2023-04-05T00:15:42.060Z,98112.98
2023-04-05T00:18:21.191Z,98102.23
2023-04-05T00:20:49.087Z,98092.11
2023-04-05T00:23:18.255Z,98082.00
2023-04-05T00:25:45.397Z,98075.00
2023-04-05T00:28:12.415Z,98064.83
2023-04-05T00:30:41.021Z,98054.04
2023-04-05T00:33:09.073Z,98047.55
2023-04-05T00:35:37.878Z,98042.13
2023-04-05T00:38:05.518Z,98039.98
2023-04-05T00:40:34.702Z,98034.58
2023-04-05T00:43:02.729Z,98039.98
2023-04-05T00:45:30.996Z,98036.04
2023-04-05T00:47:58.889Z,98033.23
2023-04-05T00:50:30.516Z,98039.63
2023-04-05T00:52:58.520Z,98034.91
2023-04-05T00:55:26.217Z,98037.84
2023-04-05T00:57:55.348Z,98036.38
2023-04-05T01:00:22.713Z,98032.97
2023-04-05T01:02:52.945Z,98035.60
2023-04-05T01:05:25.217Z,98036.80
2023-04-05T01:07:54.905Z,98034.81
2023-04-05T01:10:22.354Z,98031.75
2023-04-05T01:12:49.720Z,98027.33
2023-04-05T01:15:18.597Z,98025.88
2023-04-05T01:17:46.679Z,98024.39
2023-04-05T01:20:15.005Z,98018.91
2023-04-05T01:22:43.022Z,98021.77
2023-04-05T01:25:30.561Z,98021.23
2023-04-05T01:27:58.406Z,98021.56
2023-04-05T01:30:32.413Z,98021.41
2023-04-05T01:33:13.940Z,98024.45
2023-04-05T01:35:53.461Z,98028.04
2023-04-05T01:38:27.363Z,98028.84
2023-04-05T01:40:55.223Z,98029.77
2023-04-05T01:43:25.212Z,98029.66
2023-04-05T01:45:52.691Z,98029.76
2023-04-05T01:48:20.714Z,98021.10
2023-04-05T01:50:48.221Z,98009.73
2023-04-05T01:53:15.675Z,98000.08
2023-04-05T01:55:43.959Z,98003.77
2023-04-05T01:58:11.510Z,98000.95
2023-04-05T02:00:39.263Z,98001.91
2023-04-05T02:03:06.844Z,98001.63
2023-04-05T02:05:34.223Z,97995.89
2023-04-05T02:08:05.631Z,97995.04
2023-04-05T02:10:33.196Z,97992.42
2023-04-05T02:13:00.989Z,97989.52
2023-04-05T02:15:29.678Z,97993.09
2023-04-05T02:18:01.709Z,97990.67
2023-04-05T02:20:29.168Z,97989.83
2023-04-05T02:22:56.316Z,97986.93
2023-04-05T02:25:24.089Z,97982.84
2023-04-05T02:27:51.433Z,97980.23
2023-04-05T02:30:19.302Z,97977.91
2023-04-05T02:32:46.637Z,97967.11
2023-04-05T02:35:17.902Z,97968.13
2023-04-05T02:37:45.252Z,97970.67
2023-04-05T02:40:13.121Z,97971.56
2023-04-05T02:42:42.217Z,97969.14
2023-04-05T02:45:10.191Z,97970.98
2023-04-05T02:47:38.125Z,97961.90
2023-04-05T02:50:06.431Z,97957.90
2023-04-05T02:52:41.503Z,97955.89
2023-04-05T02:55:09.264Z,97955.77
2023-04-05T02:57:37.091Z,97952.77
2023-04-05T03:00:13.045Z,97950.39
2023-04-05T03:02:40.551Z,97947.70
2023-04-05T03:05:08.983Z,97955.07
2023-04-05T03:07:37.738Z,97956.88
2023-04-05T03:10:07.888Z,97948.60
2023-04-05T03:12:36.296Z,97950.18
2023-04-05T03:15:05.364Z,97952.52
2023-04-05T03:17:37.252Z,97950.99
2023-04-05T03:20:09.192Z,97948.09
2023-04-05T03:22:37.667Z,97956.11
2023-04-05T03:25:06.153Z,97958.42
2023-04-05T03:27:36.270Z,97951.13
2023-04-05T03:30:10.558Z,97941.98
2023-04-05T03:33:02.463Z,97938.79
2023-04-05T03:35:59.100Z,97926.88
2023-04-05T03:38:28.149Z,97920.14
2023-04-05T03:41:25.505Z,97913.25
2023-04-05T03:43:52.961Z,97908.95
2023-04-05T03:46:22.044Z,97904.84
2023-04-05T03:48:49.203Z,97896.30
2023-04-05T03:51:18.504Z,97889.63
2023-04-05T03:53:50.978Z,97881.24
2023-04-05T03:56:18.333Z,97873.25
2023-04-05T03:58:51.783Z,97866.95
2023-04-05T04:01:22.405Z,97862.39
2023-04-05T04:03:50.120Z,97860.45
2023-04-05T04:06:19.369Z,97856.52
2023-04-05T04:08:47.320Z,97849.44
2023-04-05T04:11:15.665Z,97851.26
2023-04-05T04:13:45.211Z,97846.20
2023-04-05T04:16:21.841Z,97843.81
2023-04-05T04:18:55.246Z,97837.85
2023-04-05T04:21:51.684Z,97834.80
2023-04-05T04:24:45.752Z,97839.17
2023-04-05T04:27:35.224Z,97835.24
2023-04-05T04:30:24.635Z,97832.75
2023-04-05T04:33:14.482Z,97833.33
2023-04-05T04:35:55.014Z,97826.45
2023-04-05T04:38:44.215Z,97825.05
2023-04-05T04:41:33.679Z,97819.34
2023-04-05T04:44:14.672Z,97822.27
2023-04-05T04:47:17.132Z,97821.05
2023-04-05T04:49:52.575Z,97821.45
2023-04-05T04:52:20.337Z,97824.50
2023-04-05T04:54:47.689Z,97813.55
2023-04-05T04:57:16.491Z,97810.38
2023-04-05T04:59:43.973Z,97810.33
2023-04-05T05:02:18.258Z,97805.95
2023-04-05T05:04:45.977Z,97819.85
2023-04-05T05:07:15.030Z,97819.00
2023-04-05T05:09:43.809Z,97814.77
2023-04-05T05:12:13.209Z,97819.50
2023-04-05T05:14:40.681Z,97817.64
2023-04-05T05:17:08.327Z,97818.17
2023-04-05T05:19:36.701Z,97824.25
2023-04-05T05:22:04.167Z,97833.20
2023-04-05T05:24:31.853Z,97843.35
2023-04-05T05:26:59.377Z,97845.69
2023-04-05T05:29:32.796Z,97854.73
2023-04-05T05:32:00.445Z,97860.89
2023-04-05T05:34:28.099Z,97864.71
2023-04-05T05:37:01.741Z,97871.69
2023-04-05T05:39:29.548Z,97876.14
2023-04-05T05:41:57.960Z,97883.78
2023-04-05T05:44:25.450Z,97894.10
2023-04-05T05:46:52.855Z,97893.95
2023-04-05T05:49:20.414Z,97900.70
2023-04-05T05:51:52.605Z,97906.46
2023-04-05T05:54:20.454Z,97907.06
2023-04-05T05:56:47.804Z,97911.60
2023-04-05T05:59:16.324Z,97907.17
2023-04-05T06:01:46.161Z,97908.53
2023-04-05T06:04:13.414Z,97912.74
2023-04-05T06:06:43.467Z,97913.83
2023-04-05T06:09:11.230Z,97919.35
2023-04-05T06:11:53.230Z,97922.28
2023-04-05T06:14:24.075Z,97932.02
2023-04-05T06:16:53.292Z,97934.38
2023-04-05T06:19:20.929Z,97944.31
2023-04-05T06:21:48.308Z,97948.72
2023-04-05T06:24:15.948Z,97949.80
2023-04-05T06:26:43.118Z,97951.29
2023-04-05T06:29:11.814Z,97955.56
2023-04-05T06:31:42.224Z,97957.27
2023-04-05T06:34:09.749Z,97960.46
2023-04-05T06:36:47.094Z,97960.46
2023-04-05T06:39:14.493Z,97957.35
2023-04-05T06:41:42.061Z,97959.86
2023-04-05T06:44:09.316Z,97959.13
2023-04-05T06:46:36.668Z,97960.47
2023-04-05T06:49:04.370Z,97963.64
2023-04-05T06:51:31.676Z,97967.56
2023-04-05T06:54:00.481Z,97976.48
2023-04-05T06:56:28.576Z,97976.46
2023-04-05T06:58:57.704Z,97977.20
2023-04-05T07:01:25.853Z,97973.70
2023-04-05T07:03:56.586Z,97970.27
2023-04-05T07:06:25.249Z,97975.70
2023-04-05T07:08:53.194Z,97985.84
2023-04-05T07:11:21.192Z,97984.48
2023-04-05T07:13:48.476Z,97995.98
2023-04-05T07:16:22.842Z,98003.02
2023-04-05T07:18:50.802Z,98008.89
2023-04-05T07:21:18.665Z,98014.36
2023-04-05T07:23:50.318Z,98024.20
2023-04-05T07:26:18.208Z,98027.79
2023-04-05T07:28:46.061Z,98030.83
2023-04-05T07:31:14.224Z,98037.34
2023-04-05T07:33:42.109Z,98045.13
2023-04-05T07:36:09.897Z,98047.29
2023-04-05T07:38:37.318Z,98048.48
2023-04-05T07:41:04.846Z,98065.61
2023-04-05T07:43:32.330Z,98065.73
2023-04-05T07:46:00.947Z,98067.71
2023-04-05T07:48:28.885Z,98075.75
2023-04-05T07:51:02.630Z,98078.58
2023-04-05T07:53:30.767Z,98091.10
2023-04-05T07:55:58.821Z,98095.01
2023-04-05T07:58:30.070Z,98101.89
2023-04-05T08:01:01.020Z,98097.16
2023-04-05T08:03:29.594Z,98104.48
2023-04-05T08:05:57.781Z,98109.63
2023-04-05T08:08:25.266Z,98122.51
2023-04-05T08:10:53.601Z,98124.51
2023-04-05T08:13:23.220Z,98140.08
2023-04-05T08:15:50.811Z,98157.30
2023-04-05T08:18:21.194Z,98161.69
2023-04-05T08:20:51.932Z,98181.52
2023-04-05T08:23:19.383Z,98191.90
2023-04-05T08:25:47.049Z,98203.33
2023-04-05T08:28:14.812Z,98213.67
2023-04-05T08:30:42.796Z,98220.61
2023-04-05T08:33:11.902Z,98223.75
2023-04-05T08:35:39.274Z,98226.27
2023-04-05T08:38:07.396Z,98240.40
2023-04-05T08:40:44.224Z,98243.82
2023-04-05T08:43:21.078Z,98246.06
2023-04-05T08:45:52.137Z,98259.39
2023-04-05T08:48:20.984Z,98262.70
2023-04-05T08:50:51.882Z,98263.55
2023-04-05T08:53:20.114Z,98265.95
2023-04-05T08:55:49.463Z,98266.34
2023-04-05T08:58:17.572Z,98259.23
2023-04-05T09:00:45.945Z,98255.25
2023-04-05T09:03:23.219Z,98260.98
2023-04-05T09:05:51.735Z,98259.58
2023-04-05T09:08:21.030Z,98266.95
2023-04-05T09:10:49.599Z,98271.15
2023-04-05T09:13:17.674Z,98279.64
2023-04-05T09:15:46.461Z,98289.09
2023-04-05T09:18:25.421Z,98296.06
2023-04-05T09:21:04.740Z,98303.16
2023-04-05T09:23:36.633Z,98301.98
2023-04-05T09:26:21.070Z,98296.64
2023-04-05T09:28:50.345Z,98335.41
2023-04-05T09:31:33.566Z,98338.35
2023-04-05T09:34:04.726Z,98328.95
2023-04-05T09:36:33.235Z,98335.05
2023-04-05T09:39:04.945Z,98331.09
2023-04-05T09:41:32.746Z,98347.38
2023-04-05T09:44:00.752Z,98347.17
2023-04-05T09:46:33.628Z,98339.22
2023-04-05T09:49:02.053Z,98347.02
2023-04-05T09:51:33.296Z,98354.98
2023-04-05T09:54:01.632Z,98360.52
2023-04-05T09:56:31.387Z,98366.17
2023-04-05T09:59:01.209Z,98369.64
2023-04-05T10:01:30.197Z,98370.94
2023-04-05T10:03:59.681Z,98382.46
2023-04-05T10:06:40.255Z,98383.91
2023-04-05T10:09:09.070Z,98399.81
2023-04-05T10:11:37.221Z,98397.99
2023-04-05T10:14:05.592Z,98401.98
2023-04-05T10:16:34.212Z,98409.50
2023-04-05T10:19:02.847Z,98409.60
2023-04-05T10:21:33.087Z,98409.88
2023-04-05T10:24:08.511Z,98413.60
2023-04-05T10:26:45.220Z,98418.41
2023-04-05T10:29:13.289Z,98425.89
2023-04-05T10:31:51.730Z,98438.98
2023-04-05T10:34:28.443Z,98441.01
2023-04-05T10:37:00.620Z,98445.20
2023-04-05T10:39:41.388Z,98451.48
2023-04-05T10:42:12.027Z,98448.53
2023-04-05T10:44:39.357Z,98443.92
2023-04-05T10:47:06.919Z,98447.50
2023-04-05T10:49:37.581Z,98450.78
2023-04-05T10:52:05.616Z,98451.70
2023-04-05T10:54:34.414Z,98451.65
2023-04-05T10:57:10.976Z,98454.25
2023-04-05T10:59:42.824Z,98458.58
2023-04-05T11:02:10.977Z,98454.89
2023-04-05T11:04:41.039Z,98455.19
2023-04-05T11:07:13.127Z,98455.26
2023-04-05T11:09:52.856Z,98452.11
2023-04-05T11:12:20.400Z,98447.59
2023-04-05T11:14:47.898Z,98446.58
2023-04-05T11:17:24.674Z,98445.88
2023-04-05T11:19:52.911Z,98443.18
2023-04-05T11:22:29.584Z,98439.94
2023-04-05T11:24:58.299Z,98433.73
2023-04-05T11:27:27.392Z,98432.91
2023-04-05T11:29:57.588Z,98424.42
2023-04-05T11:32:37.803Z,98419.63
2023-04-05T11:35:05.853Z,98411.61
2023-04-05T11:37:52.484Z,98406.71
2023-04-05T11:40:46.392Z,98401.59
2023-04-05T11:43:13.755Z,98401.23
2023-04-05T11:45:46.661Z,98395.90
2023-04-05T11:48:15.008Z,98392.05
2023-04-05T11:50:42.577Z,98391.10
2023-04-05T11:53:10.920Z,98380.04
2023-04-05T11:55:38.943Z,98372.00
2023-04-05T11:58:20.815Z,98376.40
2023-04-05T12:01:01.688Z,98371.63
2023-04-05T12:03:33.611Z,98368.28
2023-04-05T12:06:02.107Z,98369.50
2023-04-05T12:08:42.587Z,98369.06
2023-04-05T12:11:11.270Z,98363.21
2023-04-05T12:13:39.879Z,98364.16
2023-04-05T12:16:07.830Z,98360.61
2023-04-05T12:18:36.204Z,98363.84
2023-04-05T12:21:08.465Z,98368.90
2023-04-05T12:23:36.847Z,98371.15
2023-04-05T12:26:05.836Z,98371.45
2023-04-05T12:28:49.476Z,98378.92
2023-04-05T12:31:16.933Z,98377.80
2023-04-05T12:33:44.396Z,98378.45
2023-04-05T12:36:12.513Z,98374.96
2023-04-05T12:38:40.223Z,98372.76
2023-04-05T12:41:07.578Z,98371.64
2023-04-05T12:43:40.663Z,98373.27
2023-04-05T12:46:11.741Z,98368.36
2023-04-05T12:48:40.083Z,98365.81
2023-04-05T12:51:15.731Z,98365.03
2023-04-05T12:53:49.062Z,98367.93
2023-04-05T12:56:16.397Z,98371.48
2023-04-05T12:58:45.786Z,98369.34
2023-04-05T13:01:13.178Z,98367.67
2023-04-05T13:03:43.324Z,98363.40
2023-04-05T13:06:10.619Z,98372.67
2023-04-05T13:08:38.273Z,98372.73
2023-04-05T13:11:05.720Z,98377.48
2023-04-05T13:13:33.815Z,98384.37
2023-04-05T13:16:01.184Z,98389.70
2023-04-05T13:18:29.088Z,98384.50
2023-04-05T13:20:56.587Z,98396.61
2023-04-05T13:23:24.042Z,98397.69
2023-04-05T13:25:51.341Z,98402.19
2023-04-05T13:28:18.762Z,98400.36
2023-04-05T13:30:47.336Z,98397.67
2023-04-05T13:33:16.034Z,98394.37
2023-04-05T13:35:44.311Z,98383.25
2023-04-05T13:38:12.162Z,98371.52
2023-04-05T13:40:39.611Z,98364.27
2023-04-05T13:43:06.769Z,98363.88
2023-04-05T13:45:34.740Z,98360.85
2023-04-05T13:48:03.164Z,98358.03
2023-04-05T13:50:33.227Z,98352.80
2023-04-05T13:53:00.892Z,98353.77
2023-04-05T13:55:28.774Z,98353.98
2023-04-05T13:57:56.149Z,98350.78
2023-04-05T14:00:23.919Z,98346.30
2023-04-05T14:02:51.523Z,98344.54
2023-04-05T14:05:18.721Z,98341.08
2023-04-05T14:07:46.349Z,98339.58
2023-04-05T14:10:16.605Z,98343.11
2023-04-05T14:12:45.050Z,98338.77
2023-04-05T14:15:12.712Z,98335.38
2023-04-05T14:17:47.077Z,98328.33
2023-04-05T14:20:14.992Z,98323.11
2023-04-05T14:22:42.557Z,98318.20
2023-04-05T14:25:10.108Z,98311.92
2023-04-05T14:27:41.701Z,98310.30
2023-04-05T14:30:10.801Z,98318.65
2023-04-05T14:32:41.522Z,98322.97
2023-04-05T14:35:09.153Z,98319.77
2023-04-05T14:37:36.810Z,98323.91
2023-04-05T14:40:04.987Z,98324.52
2023-04-05T14:42:47.929Z,98315.16
2023-04-05T14:45:17.563Z,98303.62
2023-04-05T14:47:45.107Z,98293.78
2023-04-05T14:50:18.675Z,98286.40
2023-04-05T14:52:46.451Z,98282.55
2023-04-05T14:55:14.009Z,98277.89
2023-04-05T14:57:41.564Z,98269.13
2023-04-05T15:00:09.625Z,98259.89
2023-04-05T15:02:57.614Z,98246.39
2023-04-05T15:05:25.238Z,98235.73
2023-04-05T15:07:52.577Z,98227.08
2023-04-05T15:10:27.099Z,98206.83
2023-04-05T15:12:54.966Z,98188.58
2023-04-05T15:15:22.398Z,98173.79
2023-04-05T15:17:50.634Z,98153.03
2023-04-05T15:20:18.041Z,98139.79
2023-04-05T15:22:45.508Z,98124.73
2023-04-05T15:25:12.969Z,98098.85
2023-04-05T15:27:40.935Z,98073.65
2023-04-05T15:30:09.008Z,98056.07
2023-04-05T15:32:37.916Z,98038.73
2023-04-05T15:35:05.775Z,98027.54
2023-04-05T15:37:33.315Z,98017.39
2023-04-05T15:40:03.187Z,98008.03
2023-04-05T15:42:31.833Z,97998.18
2023-04-05T15:45:00.251Z,97985.55
2023-04-05T15:47:27.776Z,97974.02
2023-04-05T15:49:55.106Z,97965.71
2023-04-05T15:52:22.459Z,97959.64
2023-04-05T15:54:49.923Z,97947.94
2023-04-05T15:57:17.268Z,97939.75
2023-04-05T15:59:44.840Z,97930.15
2023-04-05T16:02:12.179Z,97928.82
2023-04-05T16:04:40.049Z,97918.19
2023-04-05T16:07:08.740Z,97908.09
2023-04-05T16:09:36.602Z,97900.00
2023-04-05T16:12:04.058Z,97887.14
2023-04-05T16:14:33.068Z,97877.67
2023-04-05T16:17:04.147Z,97865.29
2023-04-05T16:19:31.754Z,97852.12
2023-04-05T16:22:00.544Z,97843.81
2023-04-05T16:24:28.002Z,97834.30
2023-04-05T16:26:56.377Z,97831.85
2023-04-05T16:29:24.457Z,97826.80
2023-04-05T16:31:52.494Z,97822.73
2023-04-05T16:34:21.624Z,97819.02
2023-04-05T16:36:49.038Z,97808.80
2023-04-05T16:39:16.525Z,97803.85
2023-04-05T16:41:45.931Z,97799.06
2023-04-05T16:44:13.339Z,97778.61
2023-04-05T16:46:41.067Z,97765.43
2023-04-05T16:49:09.528Z,97753.00
2023-04-05T16:51:42.216Z,97750.29
2023-04-05T16:54:09.677Z,97750.71
2023-04-05T16:56:38.554Z,97747.20
2023-04-05T16:59:07.702Z,97734.45
2023-04-05T17:01:36.100Z,97730.67
2023-04-05T17:04:04.698Z,97722.02
2023-04-05T17:06:33.294Z,97716.33
2023-04-05T17:09:00.939Z,97708.42
2023-04-05T17:11:28.924Z,97700.41
2023-04-05T17:13:58.871Z,97695.52
2023-04-05T17:16:26.315Z,97685.20
2023-04-05T17:18:53.851Z,97672.83
2023-04-05T17:21:22.747Z,97663.36
2023-04-05T17:23:50.208Z,97652.63
2023-04-05T17:26:17.762Z,97652.10
2023-04-05T17:28:45.745Z,97652.48
2023-04-05T17:31:13.426Z,97663.84
2023-04-05T17:33:48.592Z,97663.32
2023-04-05T17:36:17.289Z,97658.09
2023-04-05T17:38:44.509Z,97653.64
2023-04-05T17:41:12.332Z,97646.31
2023-04-05T17:43:40.299Z,97646.90
2023-04-05T17:46:10.038Z,97641.01
2023-04-05T17:48:37.801Z,97642.12
2023-04-05T17:51:07.488Z,97640.80
2023-04-05T17:53:36.063Z,97637.29
2023-04-05T17:56:03.432Z,97642.17
2023-04-05T17:58:32.015Z,97641.43
2023-04-05T18:00:59.885Z,97642.83
2023-04-05T18:03:27.794Z,97642.17
2023-04-05T18:05:56.115Z,97641.66
2023-04-05T18:08:26.136Z,97643.83
2023-04-05T18:10:59.644Z,97644.40
2023-04-05T18:13:27.097Z,97648.17
2023-04-05T18:15:56.250Z,97645.46
2023-04-05T18:18:25.735Z,97647.58
2023-04-05T18:20:53.867Z,97646.47
2023-04-05T18:23:24.376Z,97646.15
2023-04-05T18:25:55.167Z,97642.96
2023-04-05T18:28:23.657Z,97642.69
2023-04-05T18:30:51.468Z,97636.48
2023-04-05T18:33:22.350Z,97632.00
2023-04-05T18:35:50.086Z,97629.30
2023-04-05T18:38:18.020Z,97622.55
2023-04-05T18:40:50.118Z,97623.08
2023-04-05T18:43:21.448Z,97620.02
2023-04-05T18:45:48.817Z,97617.78
2023-04-05T18:48:17.439Z,97612.75
2023-04-05T18:50:47.362Z,97608.91
2023-04-05T18:53:15.059Z,97610.57
2023-04-05T18:55:42.438Z,97607.01
2023-04-05T18:58:09.976Z,97608.34
2023-04-05T19:00:40.502Z,97607.59
2023-04-05T19:03:08.206Z,97610.61
2023-04-05T19:05:36.337Z,97609.40
2023-04-05T19:08:04.827Z,97601.50
2023-04-05T19:10:32.897Z,97596.48
2023-04-05T19:13:00.152Z,97596.11
2023-04-05T19:15:28.631Z,97592.25
2023-04-05T19:17:57.743Z,97587.20
2023-04-05T19:20:25.348Z,97584.33
2023-04-05T19:22:53.736Z,97582.26
2023-04-05T19:25:21.631Z,97572.75
2023-04-05T19:27:49.030Z,97570.77
2023-04-05T19:30:16.342Z,97568.19
2023-04-05T19:33:03.834Z,97564.42
2023-04-05T19:35:31.342Z,97553.27
2023-04-05T19:37:59.523Z,97556.45
2023-04-05T19:40:27.609Z,97555.08
2023-04-05T19:43:18.186Z,97555.48
2023-04-05T19:45:46.880Z,97555.13
2023-04-05T19:48:36.737Z,97557.45
2023-04-05T19:51:06.643Z,97557.04
2023-04-05T19:53:51.769Z,97554.80
2023-04-05T19:56:26.183Z,97559.74
2023-04-05T19:59:02.843Z,97562.45
2023-04-05T20:01:30.641Z,97566.33
2023-04-05T20:03:58.590Z,97561.55
2023-04-05T20:06:27.524Z,97559.69
2023-04-05T20:08:59.154Z,97557.83
2023-04-05T20:11:26.947Z,97561.29
2023-04-05T20:13:56.748Z,97563.56
2023-04-05T20:16:25.999Z,97560.75
2023-04-05T20:18:56.186Z,97561.55
2023-04-05T20:21:23.737Z,97555.38
2023-04-05T20:23:51.758Z,97556.50
2023-04-05T20:26:19.487Z,97553.63
2023-04-05T20:28:52.866Z,97553.95
2023-04-05T20:31:22.205Z,97553.80
2023-04-05T20:33:54.237Z,97552.08
2023-04-05T20:36:33.596Z,97551.13
2023-04-05T20:39:01.646Z,97550.50
2023-04-05T20:41:31.245Z,97551.66
2023-04-05T20:43:59.115Z,97548.85
2023-04-05T20:46:27.975Z,97549.91
2023-04-05T20:48:58.195Z,97551.61
2023-04-05T20:51:25.891Z,97553.11
2023-04-05T20:53:53.344Z,97552.05
2023-04-05T20:56:21.516Z,97547.95
2023-04-05T20:58:48.953Z,97546.10
2023-04-05T21:01:16.992Z,97545.67
2023-04-05T21:03:45.784Z,97546.05
2023-04-05T21:06:13.306Z,97551.30
2023-04-05T21:08:41.157Z,97556.40
2023-04-05T21:11:11.172Z,97558.30
2023-04-05T21:13:38.945Z,97560.17
2023-04-05T21:16:06.973Z,97563.52
2023-04-05T21:18:35.641Z,97563.45
2023-04-05T21:21:03.048Z,97561.66
2023-04-05T21:23:32.081Z,97561.81
2023-04-05T21:26:00.864Z,97565.48
2023-04-05T21:28:27.973Z,97563.14
2023-04-05T21:30:57.284Z,97562.61
2023-04-05T21:33:25.443Z,97563.20
2023-04-05T21:35:52.817Z,97569.63
2023-04-05T21:38:20.991Z,97563.68
2023-04-05T21:40:50.345Z,97564.45
2023-04-05T21:43:23.368Z,97564.95
2023-04-05T21:45:52.498Z,97565.86
2023-04-05T21:48:20.936Z,97565.15
2023-04-05T21:50:51.678Z,97566.59
2023-04-05T21:53:19.743Z,97574.93
2023-04-05T21:55:48.484Z,97579.88
2023-04-05T21:58:17.334Z,97581.78
2023-04-05T22:00:44.799Z,97582.10
2023-04-05T22:03:12.458Z,97578.92
2023-04-05T22:05:39.895Z,97583.80
2023-04-05T22:08:07.850Z,97593.20
2023-04-05T22:10:35.976Z,97589.00
2023-04-05T22:13:03.281Z,97587.73
2023-04-05T22:15:32.708Z,97581.99
2023-04-05T22:18:01.398Z,97588.10
2023-04-05T22:20:28.831Z,97586.30
2023-04-05T22:22:56.192Z,97587.24
2023-04-05T22:25:28.358Z,97591.77
2023-04-05T22:28:00.357Z,97593.35
2023-04-05T22:30:28.428Z,97600.36
2023-04-05T22:33:08.791Z,97601.10
2023-04-05T22:35:36.424Z,97597.48
2023-04-05T22:38:06.558Z,97597.91
2023-04-05T22:40:34.484Z,97602.10
2023-04-05T22:43:01.697Z,97599.60
2023-04-05T22:45:29.315Z,97598.01
2023-04-05T22:47:56.831Z,97599.16
2023-04-05T22:50:24.421Z,97600.11
2023-04-05T22:52:52.078Z,97599.67
2023-04-05T22:55:20.263Z,97598.83
2023-04-05T22:57:47.849Z,97596.64
2023-04-05T23:00:15.682Z,97600.88
2023-04-05T23:02:43.077Z,97601.70
2023-04-05T23:05:10.602Z,97603.21
2023-04-05T23:07:38.153Z,97601.57
2023-04-05T23:10:05.923Z,97599.94
2023-04-05T23:12:34.294Z,97599.08
2023-04-05T23:15:01.666Z,97603.00
2023-04-05T23:17:29.542Z,97604.48
2023-04-05T23:19:57.173Z,97610.41
2023-04-05T23:22:24.653Z,97612.58
2023-04-05T23:24:52.500Z,97610.98
2023-04-05T23:27:20.770Z,97608.58
2023-04-05T23:29:48.146Z,97604.50
2023-04-05T23:32:15.685Z,97604.08
2023-04-05T23:34:42.835Z,97602.49
2023-04-05T23:37:10.595Z,97603.63
2023-04-05T23:39:37.848Z,97595.36
2023-04-05T23:42:05.819Z,97587.85
2023-04-05T23:44:33.377Z,97585.27
2023-04-05T23:47:00.911Z,97584.34
2023-04-05T23:49:28.800Z,97586.66
2023-04-05T23:51:56.265Z,97594.88
2023-04-05T23:54:23.511Z,97594.95
2023-04-05T23:56:51.169Z,97600.58
2023-04-05T23:59:18.650Z,97594.41
